Time;durP1;ratioP1;P1;durP2;ratioP2;P2;SDS_P1;SDS_P2;PMS_P1;PMS_P2;Temp;Humidity;BMP_temperature;BMP_pressure;BME280_temperature;BME280_humidity;BME280_pressure;Samples;Min_cycle;Max_cycle;Signal;HPM_P1;HPM_P2
2020/12/21 00:04:56;;;;;;;23.90;17.10;;;5.30;48.20;;;;;;10415372;28;20232;-74
2020/12/21 00:09:59;;;;;;;23.53;17.40;;;5.30;48.20;;;;;;10416449;28;20235;-74
2020/12/21 00:15:01;;;;;;;23.47;17.87;;;5.40;48.60;;;;;;10416331;28;20312;-73
2020/12/21 00:20:04;;;;;;;22.03;16.67;;;5.40;48.90;;;;;;10416934;28;20232;-73
2020/12/21 00:25:07;;;;;;;20.63;15.63;;;5.40;48.80;;;;;;10417680;28;20222;-73
2020/12/21 00:30:09;;;;;;;18.07;14.43;;;5.40;48.70;;;;;;10417799;28;20329;-73
2020/12/21 00:35:11;;;;;;;23.57;17.13;;;5.50;48.90;;;;;;10417510;28;20328;-73
2020/12/21 00:40:14;;;;;;;19.07;15.10;;;5.50;48.80;;;;;;10419065;28;20228;-74
2020/12/21 00:45:17;;;;;;;19.03;15.23;;;5.50;48.60;;;;;;10422374;28;20291;-74
2020/12/21 00:50:19;;;;;;;18.33;15.17;;;5.60;48.60;;;;;;10426706;28;20256;-74
2020/12/21 00:55:22;;;;;;;17.20;14.20;;;5.60;48.70;;;;;;10437455;28;20241;-74
2020/12/21 01:00:24;;;;;;;17.73;14.10;;;5.60;48.90;;;;;;10427362;28;20247;-74
2020/12/21 01:05:27;;;;;;;17.70;14.40;;;5.70;48.90;;;;;;10436537;28;20237;-74
2020/12/21 01:10:30;;;;;;;17.83;14.60;;;5.70;48.60;;;;;;10420864;28;20243;-74
2020/12/21 01:15:32;;;;;;;18.00;14.10;;;5.70;48.60;;;;;;10418019;28;20232;-74
2020/12/21 01:20:34;;;;;;;16.60;14.23;;;5.70;48.40;;;;;;10424160;28;20225;-74
2020/12/21 01:25:37;;;;;;;16.93;13.30;;;5.70;48.30;;;;;;10418508;28;20247;-74
2020/12/21 01:30:39;;;;;;;15.73;13.30;;;5.70;48.40;;;;;;10429202;28;20244;-74
2020/12/21 01:35:42;;;;;;;13.50;12.03;;;5.70;48.60;;;;;;10417322;28;20236;-74
2020/12/21 01:40:45;;;;;;;14.23;12.73;;;5.70;48.80;;;;;;10422534;28;20232;-74
2020/12/21 01:45:47;;;;;;;14.87;12.77;;;5.80;48.90;;;;;;10416227;28;20225;-74
2020/12/21 01:50:49;;;;;;;14.73;12.37;;;5.80;48.70;;;;;;10414723;28;20234;-74
2020/12/21 01:55:56;;;;;;;15.57;13.07;;;5.80;48.50;;;;;;10423433;28;20614;-74
2020/12/21 02:01:01;;;;;;;14.90;12.47;;;5.80;48.60;;;;;;10417255;28;20625;-74
2020/12/21 02:06:04;;;;;;;14.93;12.60;;;5.80;48.60;;;;;;10425344;28;20234;-73
2020/12/21 02:11:07;;;;;;;14.77;13.20;;;5.90;48.80;;;;;;10411756;28;20236;-74
2020/12/21 02:16:14;;;;;;;17.00;14.33;;;5.90;48.70;;;;;;10413419;28;20244;-74
2020/12/21 02:21:18;;;;;;;12.97;11.37;;;5.90;48.70;;;;;;10412188;28;20229;-74
2020/12/21 02:26:20;;;;;;;13.43;11.87;;;5.90;49.40;;;;;;10415980;28;20218;-74
2020/12/21 02:31:23;;;;;;;13.17;11.77;;;5.90;48.80;;;;;;10421877;28;20234;-74
2020/12/21 02:36:26;;;;;;;13.93;12.13;;;6.00;48.80;;;;;;10428423;28;20332;-74
2020/12/21 02:41:29;;;;;;;13.17;11.77;;;6.00;48.60;;;;;;10409446;28;20320;-74
2020/12/21 02:46:31;;;;;;;12.73;11.40;;;6.00;48.70;;;;;;10419531;28;20646;-71
2020/12/21 02:51:34;;;;;;;13.37;11.83;;;6.00;48.80;;;;;;10412101;28;20225;-71
2020/12/21 02:56:36;;;;;;;14.23;12.13;;;6.00;48.80;;;;;;10415434;28;20652;-71
2020/12/21 03:01:39;;;;;;;13.30;11.90;;;6.00;48.70;;;;;;10415430;28;20236;-71
2020/12/21 03:06:42;;;;;;;13.30;11.90;;;6.00;48.70;;;;;;10409430;28;20668;-71
2020/12/21 03:11:45;;;;;;;12.87;11.43;;;6.00;48.60;;;;;;10412867;28;20764;-71
2020/12/21 03:16:48;;;;;;;13.00;11.20;;;6.00;48.60;;;;;;10409023;28;20617;-71
2020/12/21 03:21:51;;;;;;;13.13;11.73;;;6.10;48.70;;;;;;10407974;28;20222;-71
2020/12/21 03:26:53;;;;;;;11.70;10.50;;;6.10;48.70;;;;;;10417382;28;20224;-71
2020/12/21 03:31:55;;;;;;;12.63;11.33;;;6.10;48.80;;;;;;10409700;28;20244;-71
2020/12/21 03:36:58;;;;;;;13.30;11.87;;;6.10;48.90;;;;;;10420057;28;20711;-71
2020/12/21 03:42:00;;;;;;;13.57;11.60;;;6.10;48.90;;;;;;10413904;28;20229;-71
2020/12/21 03:47:04;;;;;;;12.50;11.23;;;6.20;49.50;;;;;;10417057;28;20303;-71
2020/12/21 03:52:07;;;;;;;11.83;10.23;;;6.20;48.80;;;;;;10416923;28;20240;-71
2020/12/21 03:57:09;;;;;;;13.40;12.03;;;6.20;48.70;;;;;;10405905;28;20243;-71
2020/12/21 04:02:11;;;;;;;12.53;11.20;;;6.20;48.40;;;;;;10415192;28;20725;-71
2020/12/21 04:07:14;;;;;;;13.27;11.87;;;6.10;48.40;;;;;;10403343;28;20240;-71
2020/12/21 04:12:17;;;;;;;11.70;10.50;;;6.10;48.60;;;;;;10411304;28;20701;-71
2020/12/21 04:17:19;;;;;;;13.37;11.97;;;6.10;48.60;;;;;;10420555;28;20342;-71
2020/12/21 04:22:22;;;;;;;10.83;9.63;;;6.10;48.60;;;;;;10426513;28;20266;-71
2020/12/21 04:27:24;;;;;;;12.53;11.23;;;6.10;48.60;;;;;;10419180;28;20627;-71
2020/12/21 04:32:26;;;;;;;12.97;11.43;;;6.10;48.60;;;;;;10419897;28;20225;-71
2020/12/21 04:37:30;;;;;;;12.50;11.13;;;6.20;48.70;;;;;;10413823;28;20230;-71
2020/12/21 04:42:32;;;;;;;13.37;11.73;;;6.20;49.40;;;;;;10425427;28;20728;-71
2020/12/21 04:47:34;;;;;;;13.03;11.73;;;6.20;48.40;;;;;;10415321;28;20719;-71
2020/12/21 04:52:46;;;;;;;12.77;11.47;;;6.10;48.40;;;;;;10418647;28;20248;-71
2020/12/21 04:57:56;;;;;;;10.87;9.77;;;6.10;48.70;;;;;;10417783;28;20226;-71
2020/12/21 05:02:59;;;;;;;13.77;12.10;;;6.10;48.90;;;;;;10412112;28;20226;-71
2020/12/21 05:08:10;;;;;;;12.23;10.90;;;6.20;48.80;;;;;;10418307;28;20228;-73
2020/12/21 05:13:13;;;;;;;10.83;9.73;;;6.20;48.80;;;;;;10413705;28;20218;-71
2020/12/21 05:18:17;;;;;;;13.57;12.17;;;6.20;48.70;;;;;;10416750;28;20597;-71
2020/12/21 05:23:20;;;;;;;13.07;11.17;;;6.20;48.50;;;;;;10424898;28;20287;-71
2020/12/21 05:28:26;;;;;;;12.77;10.60;;;6.30;48.60;;;;;;10413813;28;20229;-71
2020/12/21 05:33:28;;;;;;;11.40;10.20;;;6.30;48.50;;;;;;10416528;28;20230;-71
2020/12/21 05:38:31;;;;;;;11.50;10.33;;;6.30;48.60;;;;;;10428411;28;20329;-71
2020/12/21 05:43:36;;;;;;;12.40;11.10;;;6.30;48.60;;;;;;10414712;28;20572;-71
2020/12/21 05:48:43;;;;;;;11.63;10.43;;;6.30;49.10;;;;;;10417598;28;20245;-71
2020/12/21 05:53:46;;;;;;;12.67;10.60;;;6.30;48.40;;;;;;10409706;28;20237;-71
2020/12/21 05:58:48;;;;;;;13.40;12.00;;;6.30;48.30;;;;;;10416681;28;20727;-71
2020/12/21 06:03:52;;;;;;;12.83;11.40;;;6.30;48.30;;;;;;10418205;28;20582;-71
2020/12/21 06:08:57;;;;;;;15.17;11.70;;;6.30;48.40;;;;;;10413287;28;20241;-71
2020/12/21 06:14:01;;;;;;;12.03;10.43;;;6.30;48.30;;;;;;10416516;28;20225;-71
2020/12/21 06:19:06;;;;;;;12.60;11.30;;;6.30;48.30;;;;;;10418551;28;20256;-71
2020/12/21 06:24:16;;;;;;;12.70;11.40;;;6.20;48.20;;;;;;10428604;28;20225;-72
2020/12/21 06:29:20;;;;;;;12.77;11.40;;;6.20;48.30;;;;;;10422417;28;20229;-70
2020/12/21 06:34:33;;;;;;;11.63;10.50;;;6.20;48.80;;;;;;10420214;28;20244;-70
2020/12/21 06:40:00;;;;;;;12.00;10.73;;;6.20;48.70;;;;;;10413445;28;20226;-70
2020/12/21 06:45:11;;;;;;;11.87;10.60;;;6.20;48.60;;;;;;10422466;28;20333;-70
2020/12/21 06:50:14;;;;;;;11.73;10.33;;;6.20;48.60;;;;;;10405387;28;20599;-70
2020/12/21 06:55:18;;;;;;;9.80;8.80;;;6.20;48.60;;;;;;10409075;28;20248;-70
2020/12/21 07:00:21;;;;;;;13.17;10.47;;;6.20;48.60;;;;;;10426915;28;20221;-70
2020/12/21 07:05:23;;;;;;;14.10;11.53;;;6.20;48.60;;;;;;10423773;28;20236;-71
2020/12/21 07:10:26;;;;;;;15.43;12.33;;;6.20;48.80;;;;;;10422203;28;20234;-70
2020/12/21 07:15:28;;;;;;;11.43;10.07;;;6.20;48.90;;;;;;10420396;28;20237;-70
2020/12/21 07:20:30;;;;;;;11.93;10.23;;;6.20;48.90;;;;;;10426365;28;20249;-71
2020/12/21 07:25:33;;;;;;;13.53;11.43;;;6.30;48.90;;;;;;10424772;28;20225;-70
2020/12/21 07:30:35;;;;;;;12.47;10.50;;;6.30;48.70;;;;;;10419968;28;20229;-70
2020/12/21 07:35:40;;;;;;;13.37;11.00;;;6.30;48.70;;;;;;10415683;28;20228;-70
2020/12/21 07:40:45;;;;;;;12.63;11.00;;;6.30;48.80;;;;;;10420139;28;20236;-71
2020/12/21 07:45:49;;;;;;;12.43;9.50;;;6.30;49.10;;;;;;10408179;28;20243;-71
2020/12/21 07:50:52;;;;;;;10.50;9.10;;;6.40;49.30;;;;;;10416265;28;20236;-71
2020/12/21 07:55:59;;;;;;;12.10;10.80;;;6.40;49.10;;;;;;10417012;28;20232;-71
2020/12/21 08:01:01;;;;;;;12.37;11.07;;;6.50;49.30;;;;;;10421295;28;20239;-71
2020/12/21 08:06:11;;;;;;;11.67;10.30;;;6.50;49.00;;;;;;10415543;28;20225;-71
2020/12/21 08:11:16;;;;;;;12.63;11.30;;;6.60;49.00;;;;;;10407695;28;20614;-71
2020/12/21 08:16:24;;;;;;;12.87;11.47;;;6.60;49.10;;;;;;10424566;28;20308;-71
2020/12/21 08:21:28;;;;;;;13.90;12.37;;;6.60;49.20;;;;;;10410166;28;20236;-71
2020/12/21 08:26:35;;;;;;;14.10;11.57;;;6.70;49.20;;;;;;10412615;28;20437;-71
2020/12/21 08:31:43;;;;;;;14.30;12.20;;;6.70;49.20;;;;;;10420879;28;20233;-71
2020/12/21 08:36:46;;;;;;;15.53;13.03;;;6.70;49.10;;;;;;10409828;28;20223;-70
2020/12/21 08:41:58;;;;;;;14.63;12.27;;;6.80;49.20;;;;;;10420551;28;20233;-70
2020/12/21 08:47:01;;;;;;;15.27;11.93;;;6.80;49.30;;;;;;10428117;28;20229;-73
2020/12/21 08:52:04;;;;;;;14.57;12.90;;;6.80;49.00;;;;;;10428940;28;20260;-72
2020/12/21 08:57:08;;;;;;;15.70;12.10;;;6.90;49.10;;;;;;10425495;28;20613;-72
2020/12/21 09:02:10;;;;;;;14.10;12.13;;;6.90;49.20;;;;;;10414879;28;20230;-72
2020/12/21 09:07:13;;;;;;;14.40;11.93;;;6.90;49.30;;;;;;10430846;28;20233;-72
2020/12/21 09:12:16;;;;;;;16.37;13.53;;;6.90;49.30;;;;;;10439858;28;20240;-73
2020/12/21 09:17:18;;;;;;;16.90;13.33;;;7.00;49.40;;;;;;10435425;28;20243;-72
2020/12/21 09:22:20;;;;;;;17.07;13.83;;;7.00;49.60;;;;;;10442398;28;20233;-72
2020/12/21 09:27:23;;;;;;;17.10;14.30;;;7.00;49.60;;;;;;10437235;28;20229;-72
2020/12/21 09:32:25;;;;;;;17.33;14.03;;;7.10;49.80;;;;;;10431177;28;20600;-72
2020/12/21 09:37:27;;;;;;;17.83;14.53;;;7.20;49.90;;;;;;10433777;28;20239;-72
2020/12/21 09:42:47;;;;;;;19.90;15.63;;;7.20;49.90;;;;;;10430686;28;20240;-72
2020/12/21 09:47:50;;;;;;;23.73;16.63;;;7.30;50.30;;;;;;10432105;28;20601;-73
2020/12/21 09:52:52;;;;;;;24.57;17.13;;;7.30;50.20;;;;;;10423951;28;20217;-73
2020/12/21 09:57:57;;;;;;;27.83;18.67;;;7.40;50.50;;;;;;10413804;28;20790;-72
2020/12/21 10:02:59;;;;;;;28.23;19.13;;;7.40;50.50;;;;;;10433285;28;20241;-72
2020/12/21 10:08:01;;;;;;;26.40;19.00;;;7.40;50.50;;;;;;10420234;28;20217;-72
2020/12/21 10:13:05;;;;;;;30.43;20.43;;;7.40;50.50;;;;;;10431816;28;20300;-72
2020/12/21 10:18:07;;;;;;;25.67;18.13;;;7.40;50.50;;;;;;10438841;28;20723;-73
2020/12/21 10:23:10;;;;;;;28.27;19.87;;;7.50;50.60;;;;;;10430855;28;20225;-73
2020/12/21 10:28:14;;;;;;;27.60;19.53;;;7.50;50.60;;;;;;10418997;28;20228;-73
2020/12/21 10:33:17;;;;;;;26.90;19.97;;;7.60;50.70;;;;;;10423938;28;20233;-72
2020/12/21 10:38:20;;;;;;;28.03;20.30;;;7.70;50.80;;;;;;10428092;28;20225;-73
2020/12/21 10:43:23;;;;;;;23.57;16.67;;;7.80;50.90;;;;;;10426153;28;20221;-73
2020/12/21 10:48:25;;;;;;;28.73;19.87;;;7.90;50.90;;;;;;10419956;28;20237;-73
2020/12/21 10:53:27;;;;;;;28.17;19.33;;;8.00;51.00;;;;;;10423935;28;20228;-73
2020/12/21 10:58:31;;;;;;;27.27;20.20;;;8.10;50.80;;;;;;10430219;28;20233;-73
2020/12/21 11:03:34;;;;;;;30.20;21.07;;;8.20;50.80;;;;;;10426876;28;20617;-73
2020/12/21 11:08:37;;;;;;;30.20;21.03;;;8.20;50.60;;;;;;10423521;28;20239;-72
2020/12/21 11:13:42;;;;;;;29.40;21.00;;;8.10;50.30;;;;;;10425164;28;20237;-73
2020/12/21 11:18:44;;;;;;;31.60;20.87;;;8.20;50.40;;;;;;10422929;28;20217;-73
2020/12/21 11:23:47;;;;;;;30.10;20.47;;;8.10;50.60;;;;;;10428903;28;20257;-73
2020/12/21 11:28:50;;;;;;;29.77;19.83;;;8.20;50.80;;;;;;10421945;28;20228;-73
2020/12/21 11:33:52;;;;;;;29.60;20.90;;;8.20;50.80;;;;;;10420923;28;20222;-73
2020/12/21 11:38:54;;;;;;;28.20;18.90;;;8.20;50.90;;;;;;10422754;28;20222;-73
2020/12/21 11:43:57;;;;;;;29.50;19.57;;;8.30;51.30;;;;;;10422783;28;20232;-74
2020/12/21 11:49:00;;;;;;;32.70;20.87;;;8.30;51.30;;;;;;10419440;28;20222;-73
2020/12/21 11:54:02;;;;;;;33.90;21.50;;;8.40;51.30;;;;;;10425642;28;20316;-72
2020/12/21 11:59:05;;;;;;;32.90;19.40;;;8.50;50.80;;;;;;10430349;28;20815;-73
2020/12/21 12:04:07;;;;;;;31.87;19.67;;;8.50;50.90;;;;;;10428597;28;20236;-73
2020/12/21 12:09:10;;;;;;;29.07;19.60;;;8.50;50.60;;;;;;10421957;28;20232;-74
2020/12/21 12:14:13;;;;;;;32.47;21.07;;;8.40;50.60;;;;;;10414740;28;20224;-73
2020/12/21 12:19:22;;;;;;;31.93;21.07;;;8.40;50.70;;;;;;10426290;28;20220;-74
2020/12/21 12:24:24;;;;;;;30.20;20.20;;;8.40;50.90;;;;;;10414148;28;20244;-74
2020/12/21 12:29:28;;;;;;;31.70;19.17;;;8.40;50.70;;;;;;10429631;28;20717;-74
2020/12/21 12:34:31;;;;;;;28.97;19.67;;;8.30;51.20;;;;;;10410632;28;20765;-74
2020/12/21 12:39:33;;;;;;;29.83;19.60;;;8.30;51.00;;;;;;10425564;28;20234;-74
2020/12/21 12:44:36;;;;;;;34.63;20.97;;;8.30;51.20;;;;;;10422646;28;20239;-73
2020/12/21 12:49:38;;;;;;;29.57;20.47;;;8.40;51.30;;;;;;10428060;28;20233;-73
2020/12/21 12:54:40;;;;;;;28.67;19.17;;;8.40;51.10;;;;;;10420607;28;20256;-73
2020/12/21 12:59:43;;;;;;;29.00;19.20;;;8.40;51.10;;;;;;10429734;28;20797;-73
2020/12/21 13:04:59;;;;;;;29.73;19.73;;;8.40;51.10;;;;;;10429465;28;20708;-73
2020/12/21 13:10:02;;;;;;;31.60;20.70;;;8.40;50.80;;;;;;10432163;28;20607;-72
2020/12/21 13:15:05;;;;;;;30.40;20.63;;;8.40;50.80;;;;;;10436436;28;20594;-73
2020/12/21 13:20:07;;;;;;;27.57;18.97;;;8.40;50.90;;;;;;10433745;28;20300;-73
2020/12/21 13:25:10;;;;;;;26.67;18.70;;;8.30;50.80;;;;;;10430245;28;20221;-73
2020/12/21 13:30:15;;;;;;;22.77;16.37;;;8.30;51.20;;;;;;10436854;28;20220;-73
2020/12/21 13:35:21;;;;;;;23.83;17.27;;;8.40;51.30;;;;;;10436029;28;20228;-73
2020/12/21 13:40:23;;;;;;;21.20;16.60;;;8.50;51.40;;;;;;10436000;28;20229;-72
2020/12/21 13:45:26;;;;;;;24.07;17.37;;;8.50;51.10;;;;;;10436586;28;20243;-73
2020/12/21 13:50:28;;;;;;;24.17;16.77;;;8.60;51.10;;;;;;10435393;28;20735;-73
2020/12/21 13:55:31;;;;;;;22.33;16.27;;;8.60;50.70;;;;;;10434677;28;20237;-73
2020/12/21 14:00:34;;;;;;;19.67;14.37;;;8.60;50.70;;;;;;10437849;28;20248;-73
2020/12/21 14:05:40;;;;;;;22.43;16.27;;;8.60;50.60;;;;;;10427336;28;20232;-73
2020/12/21 14:10:43;;;;;;;20.83;15.83;;;8.60;50.50;;;;;;10431836;28;20226;-73
2020/12/21 14:15:46;;;;;;;20.53;16.03;;;8.60;50.50;;;;;;10440449;28;20224;-73
2020/12/21 14:20:48;;;;;;;22.73;15.90;;;8.60;50.60;;;;;;10438776;28;20229;-73
2020/12/21 14:25:50;;;;;;;22.87;17.13;;;8.60;50.90;;;;;;10437514;28;20243;-74
2020/12/21 14:30:54;;;;;;;23.17;16.93;;;8.60;50.80;;;;;;10425778;28;20221;-73
2020/12/21 14:35:56;;;;;;;21.50;16.83;;;8.60;50.80;;;;;;10440214;28;20319;-74
2020/12/21 14:40:58;;;;;;;21.33;16.87;;;8.70;50.80;;;;;;10439488;28;20232;-73
2020/12/21 14:46:01;;;;;;;21.20;16.13;;;8.60;50.60;;;;;;10441735;28;20233;-70
2020/12/21 14:51:04;;;;;;;19.10;14.70;;;8.60;50.80;;;;;;10442115;28;20237;-70
2020/12/21 14:56:08;;;;;;;22.37;16.50;;;8.60;50.60;;;;;;10446669;28;20756;-71
2020/12/21 15:01:11;;;;;;;24.57;16.67;;;8.70;50.70;;;;;;10444318;28;20228;-70
2020/12/21 15:06:13;;;;;;;24.10;19.43;;;8.70;50.60;;;;;;10433505;28;20225;-70
2020/12/21 15:11:15;;;;;;;22.47;16.67;;;8.70;50.40;;;;;;10433959;28;20615;-70
2020/12/21 15:16:18;;;;;;;23.37;18.40;;;8.70;50.40;;;;;;10433564;28;20229;-70
2020/12/21 15:21:20;;;;;;;21.40;17.27;;;8.70;50.40;;;;;;10446651;28;20221;-69
2020/12/21 15:26:23;;;;;;;19.97;15.87;;;8.60;50.30;;;;;;10437930;28;20229;-70
2020/12/21 15:31:26;;;;;;;19.03;16.53;;;8.60;50.40;;;;;;10433141;28;20233;-73
2020/12/21 15:36:28;;;;;;;20.40;17.43;;;8.60;50.40;;;;;;10444906;28;20237;-70
2020/12/21 15:41:30;;;;;;;19.50;16.87;;;8.60;50.40;;;;;;10440684;28;20226;-73
2020/12/21 15:46:33;;;;;;;19.53;16.40;;;8.60;50.40;;;;;;10430957;28;20307;-71
2020/12/21 15:51:35;;;;;;;22.77;19.70;;;8.60;50.30;;;;;;10446759;28;20231;-73
2020/12/21 15:56:38;;;;;;;20.47;18.30;;;8.60;50.40;;;;;;10433247;28;20231;-70
2020/12/21 16:01:41;;;;;;;18.60;16.60;;;8.60;50.40;;;;;;10434750;28;20236;-71
2020/12/21 16:06:46;;;;;;;19.43;17.10;;;8.60;50.50;;;;;;10438242;28;20628;-75
2020/12/21 16:11:48;;;;;;;36.23;32.53;;;8.70;50.40;;;;;;10439644;28;20228;-74
2020/12/21 16:16:52;;;;;;;27.23;24.23;;;8.60;50.40;;;;;;10437673;28;20781;-72
2020/12/21 16:21:54;;;;;;;32.73;27.40;;;8.70;50.50;;;;;;10435939;28;20240;-74
2020/12/21 16:27:01;;;;;;;51.43;45.80;;;8.60;50.40;;;;;;10446050;28;20312;-71
2020/12/21 16:32:04;;;;;;;41.07;36.83;;;8.60;50.00;;;;;;10432688;28;20271;-75
2020/12/21 16:37:06;;;;;;;30.67;27.47;;;8.60;50.40;;;;;;10433637;28;20232;-72
2020/12/21 16:42:09;;;;;;;23.03;20.17;;;8.60;50.50;;;;;;10429996;28;20355;-71
2020/12/21 16:47:12;;;;;;;21.50;18.53;;;8.60;50.40;;;;;;10434317;28;20238;-71
2020/12/21 16:52:15;;;;;;;22.17;17.87;;;8.70;50.50;;;;;;10443676;28;20660;-71
2020/12/21 16:57:18;;;;;;;19.33;17.27;;;8.70;50.60;;;;;;10438135;28;20308;-71
2020/12/21 17:02:21;;;;;;;21.27;17.97;;;8.80;50.40;;;;;;10443870;28;20325;-73
2020/12/21 17:07:23;;;;;;;22.83;18.10;;;8.80;50.30;;;;;;10428410;28;20229;-75
2020/12/21 17:12:25;;;;;;;21.97;18.63;;;8.80;50.10;;;;;;10440422;28;20229;-75
2020/12/21 17:17:28;;;;;;;22.57;18.63;;;8.80;50.10;;;;;;10434651;28;20239;-71
2020/12/21 17:22:31;;;;;;;20.77;16.83;;;8.80;50.00;;;;;;10426888;28;20230;-75
2020/12/21 17:27:33;;;;;;;22.57;19.00;;;8.80;50.20;;;;;;10433498;28;20228;-72
2020/12/21 17:32:36;;;;;;;22.17;18.40;;;8.80;50.20;;;;;;10436849;28;20613;-72
2020/12/21 17:37:38;;;;;;;51.37;36.47;;;8.80;50.00;;;;;;10436637;28;20721;-75
2020/12/21 17:42:40;;;;;;;38.70;27.97;;;8.80;50.10;;;;;;10435808;28;20229;-71
2020/12/21 17:47:43;;;;;;;38.67;30.70;;;8.80;50.10;;;;;;10432601;28;20238;-71
2020/12/21 17:52:46;;;;;;;27.27;22.90;;;8.80;50.00;;;;;;10430329;28;20919;-71
2020/12/21 17:57:48;;;;;;;24.93;21.53;;;8.80;50.00;;;;;;10421543;28;20230;-76
2020/12/21 18:02:51;;;;;;;24.73;21.03;;;8.80;50.10;;;;;;10436596;28;20228;-74
2020/12/21 18:07:53;;;;;;;24.00;20.07;;;8.80;50.00;;;;;;10443003;28;20320;-71
2020/12/21 18:12:56;;;;;;;22.10;19.07;;;8.80;50.00;;;;;;10447879;28;20287;-72
2020/12/21 18:17:59;;;;;;;19.93;17.67;;;8.80;50.00;;;;;;10444651;28;20315;-72
2020/12/21 18:23:01;;;;;;;20.07;17.60;;;8.80;50.10;;;;;;10446332;28;20232;-75
2020/12/21 18:28:03;;;;;;;21.27;19.03;;;8.80;50.10;;;;;;10439310;28;20229;-76
2020/12/21 18:33:06;;;;;;;23.10;20.63;;;8.80;50.30;;;;;;10446921;28;20251;-71
2020/12/21 18:38:08;;;;;;;19.77;17.17;;;8.80;50.30;;;;;;10432566;28;20283;-74
2020/12/21 18:43:11;;;;;;;18.10;16.20;;;8.80;50.20;;;;;;10432627;28;20232;-71
2020/12/21 18:48:14;;;;;;;42.50;36.23;;;8.90;50.30;;;;;;10441180;28;20224;-71
2020/12/21 18:53:16;;;;;;;49.83;41.67;;;8.90;50.20;;;;;;10441303;28;20229;-75
2020/12/21 18:58:18;;;;;;;60.60;51.43;;;9.00;50.40;;;;;;10436597;28;20872;-73
2020/12/21 19:03:21;;;;;;;49.50;39.63;;;9.00;50.10;;;;;;10435982;28;20244;-74
2020/12/21 19:08:23;;;;;;;21.97;19.67;;;9.00;50.20;;;;;;10431083;28;20761;-74
2020/12/21 19:13:27;;;;;;;19.60;17.53;;;9.00;50.20;;;;;;10447389;28;20235;-74
2020/12/21 19:18:31;;;;;;;18.47;16.00;;;9.00;50.20;;;;;;10424105;28;20237;-74
2020/12/21 19:23:34;;;;;;;19.57;17.67;;;9.00;50.20;;;;;;10432544;28;20229;-73
2020/12/21 19:28:36;;;;;;;17.97;16.17;;;9.00;50.40;;;;;;10438493;28;20243;-74
2020/12/21 19:33:42;;;;;;;23.83;21.37;;;8.90;50.40;;;;;;10437101;28;20221;-71
2020/12/21 19:38:44;;;;;;;21.17;19.07;;;9.00;50.50;;;;;;10436608;28;20225;-70
2020/12/21 19:43:47;;;;;;;19.87;17.77;;;9.00;50.40;;;;;;10445597;28;20231;-70
2020/12/21 19:48:50;;;;;;;30.20;27.20;;;9.00;50.30;;;;;;10437555;28;20228;-71
2020/12/21 19:53:52;;;;;;;18.33;16.57;;;9.10;50.20;;;;;;10444554;28;20740;-71
2020/12/21 19:58:54;;;;;;;15.50;13.97;;;9.10;50.30;;;;;;10431459;28;20232;-70
2020/12/21 20:03:58;;;;;;;19.63;16.93;;;9.10;50.30;;;;;;10432081;28;20248;-70
2020/12/21 20:09:00;;;;;;;17.57;15.87;;;9.10;50.20;;;;;;10435994;28;20228;-74
2020/12/21 20:14:02;;;;;;;15.07;13.53;;;9.10;50.10;;;;;;10424616;28;20709;-73
2020/12/21 20:19:07;;;;;;;12.70;11.40;;;9.10;50.00;;;;;;10430081;28;20279;-74
2020/12/21 20:24:10;;;;;;;13.90;12.50;;;9.10;50.10;;;;;;10427039;28;20653;-74
2020/12/21 20:29:12;;;;;;;13.27;11.97;;;9.10;50.10;;;;;;10427004;28;20229;-74
2020/12/21 20:34:15;;;;;;;13.53;12.23;;;9.10;50.10;;;;;;10427521;28;20271;-74
2020/12/21 20:39:18;;;;;;;14.00;12.50;;;9.00;50.20;;;;;;10426625;28;20225;-74
2020/12/21 20:44:20;;;;;;;15.57;14.00;;;9.00;50.10;;;;;;10425700;28;20257;-74
2020/12/21 20:49:24;;;;;;;14.17;12.30;;;9.00;50.20;;;;;;10424475;28;20705;-71
2020/12/21 20:54:27;;;;;;;13.17;11.87;;;9.00;50.20;;;;;;10425092;28;20229;-70
2020/12/21 20:59:30;;;;;;;13.90;12.37;;;9.00;50.30;;;;;;10431872;28;20233;-71
2020/12/21 21:04:33;;;;;;;13.90;12.40;;;9.00;50.40;;;;;;10435894;28;20238;-70
2020/12/21 21:09:35;;;;;;;14.97;13.47;;;9.10;50.40;;;;;;10433823;28;20225;-70
2020/12/21 21:14:37;;;;;;;14.07;12.67;;;9.10;50.30;;;;;;10431657;28;20232;-71
2020/12/21 21:19:42;;;;;;;14.33;12.83;;;9.10;50.20;;;;;;10430623;28;20231;-71
2020/12/21 21:24:46;;;;;;;13.57;12.27;;;9.10;50.10;;;;;;10425970;28;20234;-70
2020/12/21 21:29:48;;;;;;;12.57;11.37;;;9.10;50.30;;;;;;10429017;28;20238;-71
2020/12/21 21:34:51;;;;;;;14.13;12.73;;;9.10;50.20;;;;;;10430531;28;20250;-71
2020/12/21 21:39:54;;;;;;;15.27;13.70;;;9.10;50.30;;;;;;10432774;28;20713;-70
2020/12/21 21:44:56;;;;;;;19.07;16.97;;;9.10;50.20;;;;;;10433487;28;20225;-70
2020/12/21 21:49:59;;;;;;;15.33;13.73;;;9.10;50.20;;;;;;10430489;28;20225;-71
2020/12/21 21:55:01;;;;;;;15.17;13.60;;;9.20;50.30;;;;;;10433305;28;20352;-72
2020/12/21 22:00:04;;;;;;;14.20;12.37;;;9.20;50.30;;;;;;10430866;28;20231;-71
2020/12/21 22:05:07;;;;;;;14.70;11.67;;;9.20;50.40;;;;;;10431853;28;20312;-71
2020/12/21 22:10:09;;;;;;;12.63;11.33;;;9.20;50.30;;;;;;10429092;28;20233;-71
2020/12/21 22:15:11;;;;;;;12.37;11.13;;;9.20;50.30;;;;;;10431357;28;20230;-71
2020/12/21 22:20:14;;;;;;;12.67;11.33;;;9.10;50.30;;;;;;10429320;28;20232;-70
2020/12/21 22:25:18;;;;;;;13.27;11.97;;;9.10;50.40;;;;;;10429442;28;20261;-71
2020/12/21 22:30:20;;;;;;;12.97;11.73;;;9.10;50.40;;;;;;10431263;28;20308;-71
2020/12/21 22:35:23;;;;;;;15.20;13.57;;;9.10;51.20;;;;;;10431743;28;20229;-71
2020/12/21 22:40:25;;;;;;;13.00;11.60;;;9.10;50.40;;;;;;10430121;28;20236;-71
2020/12/21 22:45:28;;;;;;;13.03;11.80;;;9.10;50.50;;;;;;10430190;28;20746;-71
2020/12/21 22:50:31;;;;;;;13.40;12.03;;;9.10;50.50;;;;;;10429500;28;20736;-71
2020/12/21 22:55:33;;;;;;;12.27;10.97;;;9.10;50.60;;;;;;10433986;28;20308;-71
2020/12/21 23:00:35;;;;;;;12.80;11.50;;;9.00;50.50;;;;;;10440031;28;20320;-70
2020/12/21 23:05:38;;;;;;;12.73;11.27;;;9.00;50.60;;;;;;10445378;28;20233;-71
2020/12/21 23:10:41;;;;;;;12.30;11.10;;;9.00;50.80;;;;;;10438018;28;20600;-71
2020/12/21 23:15:43;;;;;;;12.77;11.57;;;9.00;50.90;;;;;;10446024;28;20233;-71
2020/12/21 23:20:46;;;;;;;12.83;11.53;;;9.00;50.90;;;;;;10441398;28;20233;-71
2020/12/21 23:25:48;;;;;;;13.20;11.83;;;9.00;50.90;;;;;;10444756;28;20776;-71
2020/12/21 23:30:51;;;;;;;12.40;11.20;;;9.00;50.90;;;;;;10438023;28;20561;-71
2020/12/21 23:35:55;;;;;;;13.20;11.83;;;9.00;50.90;;;;;;10428838;28;20321;-70
2020/12/21 23:40:57;;;;;;;12.13;10.90;;;9.00;50.90;;;;;;10413792;28;20222;-71
2020/12/21 23:46:04;;;;;;;12.83;11.53;;;9.00;50.90;;;;;;10425294;28;20654;-72
2020/12/21 23:51:07;;;;;;;11.20;10.10;;;9.00;51.00;;;;;;10418029;28;20260;-71
2020/12/21 23:56:10;;;;;;;12.77;11.33;;;9.00;51.10;;;;;;10433939;28;20235;-71
